sensor_id;sensor_type;location;lat;lon;timestamp;P1;durP1;ratioP1;P2;durP2;ratioP2
7493;SDS011;3788;49.902;8.590;2024-03-06T00:00:00;4.57;;;3.70;;
7493;SDS011;3788;49.902;8.590;2024-03-06T00:02:28;4.43;;;3.90;;
7493;SDS011;3788;49.902;8.590;2024-03-06T00:04:54;3.63;;;3.17;;
7493;SDS011;3788;49.902;8.590;2024-03-06T00:07:21;4.23;;;3.83;;
7493;SDS011;3788;49.902;8.590;2024-03-06T00:09:49;4.63;;;4.20;;
7493;SDS011;3788;49.902;8.590;2024-03-06T00:12:16;3.80;;;3.50;;
7493;SDS011;3788;49.902;8.590;2024-03-06T00:14:43;4.30;;;3.80;;
7493;SDS011;3788;49.902;8.590;2024-03-06T00:17:10;4.43;;;4.03;;
7493;SDS011;3788;49.902;8.590;2024-03-06T00:19:36;4.40;;;4.03;;
7493;SDS011;3788;49.902;8.590;2024-03-06T00:22:03;5.30;;;4.10;;
7493;SDS011;3788;49.902;8.590;2024-03-06T00:24:30;4.47;;;4.07;;
7493;SDS011;3788;49.902;8.590;2024-03-06T00:26:59;4.50;;;4.10;;
7493;SDS011;3788;49.902;8.590;2024-03-06T00:29:26;4.90;;;3.80;;
7493;SDS011;3788;49.902;8.590;2024-03-06T00:31:53;4.23;;;3.83;;
7493;SDS011;3788;49.902;8.590;2024-03-06T00:34:20;4.10;;;3.70;;
7493;SDS011;3788;49.902;8.590;2024-03-06T00:36:46;4.87;;;4.10;;
7493;SDS011;3788;49.902;8.590;2024-03-06T00:39:13;3.93;;;3.63;;
7493;SDS011;3788;49.902;8.590;2024-03-06T00:41:40;4.40;;;3.97;;
7493;SDS011;3788;49.902;8.590;2024-03-06T00:44:08;4.30;;;3.90;;
7493;SDS011;3788;49.902;8.590;2024-03-06T00:46:35;4.30;;;3.93;;
7493;SDS011;3788;49.902;8.590;2024-03-06T00:49:02;4.80;;;4.30;;
7493;SDS011;3788;49.902;8.590;2024-03-06T00:51:28;4.90;;;4.50;;
7493;SDS011;3788;49.902;8.590;2024-03-06T00:53:55;4.53;;;4.13;;
7493;SDS011;3788;49.902;8.590;2024-03-06T00:56:22;4.20;;;3.87;;
7493;SDS011;3788;49.902;8.590;2024-03-06T00:58:48;5.57;;;4.60;;
7493;SDS011;3788;49.902;8.590;2024-03-06T01:01:16;4.20;;;3.83;;
7493;SDS011;3788;49.902;8.590;2024-03-06T01:03:43;5.03;;;4.10;;
7493;SDS011;3788;49.902;8.590;2024-03-06T01:06:10;3.93;;;3.47;;
7493;SDS011;3788;49.902;8.590;2024-03-06T01:08:37;4.47;;;4.07;;
7493;SDS011;3788;49.902;8.590;2024-03-06T01:11:03;4.70;;;4.23;;
7493;SDS011;3788;49.902;8.590;2024-03-06T01:13:30;4.20;;;3.80;;
7493;SDS011;3788;49.902;8.590;2024-03-06T01:15:57;4.27;;;3.87;;
7493;SDS011;3788;49.902;8.590;2024-03-06T01:18:25;4.47;;;4.00;;
7493;SDS011;3788;49.902;8.590;2024-03-06T01:20:51;4.90;;;4.40;;
7493;SDS011;3788;49.902;8.590;2024-03-06T01:23:18;4.93;;;4.50;;
7493;SDS011;3788;49.902;8.590;2024-03-06T01:25:45;4.93;;;4.00;;
7493;SDS011;3788;49.902;8.590;2024-03-06T01:28:11;4.63;;;4.23;;
7493;SDS011;3788;49.902;8.590;2024-03-06T01:30:38;4.67;;;4.00;;
7493;SDS011;3788;49.902;8.590;2024-03-06T01:33:05;4.20;;;3.80;;
7493;SDS011;3788;49.902;8.590;2024-03-06T01:35:33;4.50;;;4.10;;
7493;SDS011;3788;49.902;8.590;2024-03-06T01:38:00;5.80;;;5.20;;
7493;SDS011;3788;49.902;8.590;2024-03-06T01:40:26;5.37;;;4.87;;
7493;SDS011;3788;49.902;8.590;2024-03-06T01:42:54;6.70;;;4.20;;
7493;SDS011;3788;49.902;8.590;2024-03-06T01:45:20;5.17;;;4.60;;
7493;SDS011;3788;49.902;8.590;2024-03-06T01:47:47;4.73;;;4.20;;
7493;SDS011;3788;49.902;8.590;2024-03-06T01:50:15;5.40;;;4.50;;
7493;SDS011;3788;49.902;8.590;2024-03-06T01:52:44;6.93;;;4.63;;
7493;SDS011;3788;49.902;8.590;2024-03-06T01:55:11;5.37;;;4.87;;
7493;SDS011;3788;49.902;8.590;2024-03-06T01:57:40;4.87;;;4.40;;
7493;SDS011;3788;49.902;8.590;2024-03-06T02:00:08;5.27;;;4.77;;
7493;SDS011;3788;49.902;8.590;2024-03-06T02:02:39;5.33;;;4.83;;
7493;SDS011;3788;49.902;8.590;2024-03-06T02:05:07;6.17;;;4.77;;
7493;SDS011;3788;49.902;8.590;2024-03-06T02:07:34;5.97;;;4.50;;
7493;SDS011;3788;49.902;8.590;2024-03-06T02:10:05;4.23;;;3.80;;
7493;SDS011;3788;49.902;8.590;2024-03-06T02:12:34;5.77;;;4.37;;
7493;SDS011;3788;49.902;8.590;2024-03-06T02:15:01;4.40;;;4.00;;
7493;SDS011;3788;49.902;8.590;2024-03-06T02:17:28;5.60;;;4.13;;
7493;SDS011;3788;49.902;8.590;2024-03-06T02:19:55;4.17;;;3.70;;
7493;SDS011;3788;49.902;8.590;2024-03-06T02:22:24;5.17;;;4.17;;
7493;SDS011;3788;49.902;8.590;2024-03-06T02:24:51;4.50;;;3.83;;
7493;SDS011;3788;49.902;8.590;2024-03-06T02:27:18;4.67;;;4.17;;
7493;SDS011;3788;49.902;8.590;2024-03-06T02:29:44;5.67;;;4.20;;
7493;SDS011;3788;49.902;8.590;2024-03-06T02:32:12;5.03;;;4.50;;
7493;SDS011;3788;49.902;8.590;2024-03-06T02:34:39;5.03;;;4.20;;
7493;SDS011;3788;49.902;8.590;2024-03-06T02:37:06;6.00;;;4.53;;
7493;SDS011;3788;49.902;8.590;2024-03-06T02:39:34;4.97;;;4.33;;
7493;SDS011;3788;49.902;8.590;2024-03-06T02:42:01;4.83;;;4.37;;
7493;SDS011;3788;49.902;8.590;2024-03-06T02:44:28;4.63;;;4.13;;
7493;SDS011;3788;49.902;8.590;2024-03-06T02:46:55;5.30;;;4.40;;
7493;SDS011;3788;49.902;8.590;2024-03-06T02:49:22;5.13;;;4.20;;
7493;SDS011;3788;49.902;8.590;2024-03-06T02:51:49;4.43;;;4.03;;
7493;SDS011;3788;49.902;8.590;2024-03-06T02:54:15;4.40;;;4.00;;
7493;SDS011;3788;49.902;8.590;2024-03-06T02:56:43;4.33;;;3.90;;
7493;SDS011;3788;49.902;8.590;2024-03-06T02:59:10;4.40;;;4.00;;
7493;SDS011;3788;49.902;8.590;2024-03-06T03:01:36;4.60;;;4.20;;
7493;SDS011;3788;49.902;8.590;2024-03-06T03:04:03;4.80;;;4.30;;
7493;SDS011;3788;49.902;8.590;2024-03-06T03:06:31;6.13;;;5.23;;
7493;SDS011;3788;49.902;8.590;2024-03-06T03:08:58;5.50;;;5.00;;
7493;SDS011;3788;49.902;8.590;2024-03-06T03:11:25;5.57;;;5.03;;
7493;SDS011;3788;49.902;8.590;2024-03-06T03:13:53;6.07;;;5.10;;
7493;SDS011;3788;49.902;8.590;2024-03-06T03:16:19;5.40;;;4.90;;
7493;SDS011;3788;49.902;8.590;2024-03-06T03:18:46;6.23;;;4.97;;
7493;SDS011;3788;49.902;8.590;2024-03-06T03:21:13;5.07;;;4.67;;
7493;SDS011;3788;49.902;8.590;2024-03-06T03:23:40;5.53;;;4.60;;
7493;SDS011;3788;49.902;8.590;2024-03-06T03:26:07;5.00;;;4.50;;
7493;SDS011;3788;49.902;8.590;2024-03-06T03:28:37;4.90;;;4.33;;
7493;SDS011;3788;49.902;8.590;2024-03-06T03:31:05;5.57;;;4.70;;
7493;SDS011;3788;49.902;8.590;2024-03-06T03:33:33;4.73;;;4.23;;
7493;SDS011;3788;49.902;8.590;2024-03-06T03:36:01;5.63;;;5.10;;
7493;SDS011;3788;49.902;8.590;2024-03-06T03:38:28;5.57;;;4.97;;
7493;SDS011;3788;49.902;8.590;2024-03-06T03:40:54;4.97;;;4.47;;
7493;SDS011;3788;49.902;8.590;2024-03-06T03:43:21;4.57;;;4.00;;
7493;SDS011;3788;49.902;8.590;2024-03-06T03:45:48;6.27;;;4.20;;
7493;SDS011;3788;49.902;8.590;2024-03-06T03:48:15;5.70;;;4.27;;
7493;SDS011;3788;49.902;8.590;2024-03-06T03:50:42;5.00;;;3.90;;
7493;SDS011;3788;49.902;8.590;2024-03-06T03:53:09;4.40;;;4.00;;
7493;SDS011;3788;49.902;8.590;2024-03-06T03:55:36;4.67;;;3.97;;
7493;SDS011;3788;49.902;8.590;2024-03-06T03:58:03;4.23;;;3.53;;
7493;SDS011;3788;49.902;8.590;2024-03-06T04:00:31;4.07;;;3.60;;
7493;SDS011;3788;49.902;8.590;2024-03-06T04:02:58;4.27;;;3.87;;
7493;SDS011;3788;49.902;8.590;2024-03-06T04:05:26;4.53;;;4.10;;
7493;SDS011;3788;49.902;8.590;2024-03-06T04:07:53;5.47;;;4.13;;
7493;SDS011;3788;49.902;8.590;2024-03-06T04:10:19;4.47;;;4.07;;
7493;SDS011;3788;49.902;8.590;2024-03-06T04:12:46;4.70;;;4.23;;
7493;SDS011;3788;49.902;8.590;2024-03-06T04:15:12;3.93;;;3.60;;
7493;SDS011;3788;49.902;8.590;2024-03-06T04:17:39;4.23;;;3.83;;
7493;SDS011;3788;49.902;8.590;2024-03-06T04:20:06;3.83;;;3.47;;
7493;SDS011;3788;49.902;8.590;2024-03-06T04:22:38;4.30;;;3.90;;
7493;SDS011;3788;49.902;8.590;2024-03-06T04:25:04;4.53;;;4.07;;
7493;SDS011;3788;49.902;8.590;2024-03-06T04:27:31;4.50;;;3.83;;
7493;SDS011;3788;49.902;8.590;2024-03-06T04:29:58;5.17;;;3.87;;
7493;SDS011;3788;49.902;8.590;2024-03-06T04:32:25;4.20;;;3.80;;
7493;SDS011;3788;49.902;8.590;2024-03-06T04:34:52;4.13;;;3.70;;
7493;SDS011;3788;49.902;8.590;2024-03-06T04:37:21;4.00;;;3.23;;
7493;SDS011;3788;49.902;8.590;2024-03-06T04:39:49;4.17;;;3.77;;
7493;SDS011;3788;49.902;8.590;2024-03-06T04:42:15;4.43;;;3.93;;
7493;SDS011;3788;49.902;8.590;2024-03-06T04:44:42;4.70;;;4.17;;
7493;SDS011;3788;49.902;8.590;2024-03-06T04:47:11;4.60;;;4.03;;
7493;SDS011;3788;49.902;8.590;2024-03-06T04:49:38;3.83;;;3.47;;
7493;SDS011;3788;49.902;8.590;2024-03-06T04:52:04;4.10;;;3.63;;
7493;SDS011;3788;49.902;8.590;2024-03-06T04:54:31;4.00;;;3.70;;
7493;SDS011;3788;49.902;8.590;2024-03-06T04:56:59;4.30;;;3.90;;
7493;SDS011;3788;49.902;8.590;2024-03-06T04:59:26;4.77;;;4.27;;
7493;SDS011;3788;49.902;8.590;2024-03-06T05:01:53;4.70;;;3.80;;
7493;SDS011;3788;49.902;8.590;2024-03-06T05:04:20;5.53;;;4.40;;
7493;SDS011;3788;49.902;8.590;2024-03-06T05:06:47;4.13;;;3.73;;
7493;SDS011;3788;49.902;8.590;2024-03-06T05:09:14;4.30;;;3.90;;
7493;SDS011;3788;49.902;8.590;2024-03-06T05:11:40;4.93;;;3.90;;
7493;SDS011;3788;49.902;8.590;2024-03-06T05:14:08;4.23;;;3.60;;
7493;SDS011;3788;49.902;8.590;2024-03-06T05:16:35;4.20;;;3.70;;
7493;SDS011;3788;49.902;8.590;2024-03-06T05:19:01;4.30;;;3.50;;
7493;SDS011;3788;49.902;8.590;2024-03-06T05:21:29;4.60;;;4.10;;
7493;SDS011;3788;49.902;8.590;2024-03-06T05:23:56;4.20;;;3.80;;
7493;SDS011;3788;49.902;8.590;2024-03-06T05:26:22;4.67;;;4.17;;
7493;SDS011;3788;49.902;8.590;2024-03-06T05:28:49;3.90;;;3.50;;
7493;SDS011;3788;49.902;8.590;2024-03-06T05:31:17;4.43;;;3.77;;
7493;SDS011;3788;49.902;8.590;2024-03-06T05:33:46;4.60;;;3.67;;
7493;SDS011;3788;49.902;8.590;2024-03-06T05:36:14;3.60;;;3.23;;
7493;SDS011;3788;49.902;8.590;2024-03-06T05:38:42;4.67;;;3.77;;
7493;SDS011;3788;49.902;8.590;2024-03-06T05:41:09;4.23;;;3.77;;
7493;SDS011;3788;49.902;8.590;2024-03-06T05:43:35;3.80;;;3.50;;
7493;SDS011;3788;49.902;8.590;2024-03-06T05:46:02;4.77;;;4.13;;
7493;SDS011;3788;49.902;8.590;2024-03-06T05:48:31;4.17;;;3.77;;
7493;SDS011;3788;49.902;8.590;2024-03-06T05:50:58;5.10;;;4.07;;
7493;SDS011;3788;49.902;8.590;2024-03-06T05:53:24;4.30;;;3.90;;
7493;SDS011;3788;49.902;8.590;2024-03-06T05:55:51;4.37;;;3.97;;
7493;SDS011;3788;49.902;8.590;2024-03-06T05:58:18;5.07;;;4.23;;
7493;SDS011;3788;49.902;8.590;2024-03-06T06:00:45;4.93;;;4.07;;
7493;SDS011;3788;49.902;8.590;2024-03-06T06:03:12;4.30;;;3.60;;
7493;SDS011;3788;49.902;8.590;2024-03-06T06:05:40;4.37;;;3.97;;
7493;SDS011;3788;49.902;8.590;2024-03-06T06:08:06;4.30;;;3.90;;
7493;SDS011;3788;49.902;8.590;2024-03-06T06:10:33;4.73;;;4.27;;
7493;SDS011;3788;49.902;8.590;2024-03-06T06:13:00;4.87;;;4.47;;
7493;SDS011;3788;49.902;8.590;2024-03-06T06:15:29;4.87;;;4.00;;
7493;SDS011;3788;49.902;8.590;2024-03-06T06:17:56;5.47;;;4.13;;
7493;SDS011;3788;49.902;8.590;2024-03-06T06:20:23;4.73;;;3.60;;
7493;SDS011;3788;49.902;8.590;2024-03-06T06:22:51;4.13;;;3.83;;
7493;SDS011;3788;49.902;8.590;2024-03-06T06:25:18;4.20;;;3.80;;
7493;SDS011;3788;49.902;8.590;2024-03-06T06:27:45;3.97;;;3.37;;
7493;SDS011;3788;49.902;8.590;2024-03-06T06:30:13;4.77;;;3.73;;
7493;SDS011;3788;49.902;8.590;2024-03-06T06:32:40;4.70;;;3.47;;
7493;SDS011;3788;49.902;8.590;2024-03-06T06:35:07;4.10;;;3.37;;
7493;SDS011;3788;49.902;8.590;2024-03-06T06:37:36;5.70;;;4.50;;
7493;SDS011;3788;49.902;8.590;2024-03-06T06:40:05;4.50;;;4.10;;
7493;SDS011;3788;49.902;8.590;2024-03-06T06:42:35;5.43;;;4.93;;
7493;SDS011;3788;49.902;8.590;2024-03-06T06:45:02;4.60;;;3.97;;
7493;SDS011;3788;49.902;8.590;2024-03-06T06:47:31;4.53;;;4.10;;
7493;SDS011;3788;49.902;8.590;2024-03-06T06:49:58;4.07;;;3.63;;
7493;SDS011;3788;49.902;8.590;2024-03-06T06:52:25;4.83;;;4.37;;
7493;SDS011;3788;49.902;8.590;2024-03-06T06:54:52;4.43;;;4.03;;
7493;SDS011;3788;49.902;8.590;2024-03-06T06:57:20;5.53;;;4.50;;
7493;SDS011;3788;49.902;8.590;2024-03-06T06:59:47;5.50;;;4.93;;
7493;SDS011;3788;49.902;8.590;2024-03-06T07:02:14;5.97;;;5.33;;
7493;SDS011;3788;49.902;8.590;2024-03-06T07:04:40;5.17;;;4.67;;
7493;SDS011;3788;49.902;8.590;2024-03-06T07:07:07;5.73;;;4.97;;
7493;SDS011;3788;49.902;8.590;2024-03-06T07:09:34;4.67;;;4.27;;
7493;SDS011;3788;49.902;8.590;2024-03-06T07:12:00;4.67;;;4.20;;
7493;SDS011;3788;49.902;8.590;2024-03-06T07:14:29;4.87;;;4.40;;
7493;SDS011;3788;49.902;8.590;2024-03-06T07:16:55;4.50;;;4.10;;
7493;SDS011;3788;49.902;8.590;2024-03-06T07:19:22;5.57;;;4.17;;
7493;SDS011;3788;49.902;8.590;2024-03-06T07:21:49;5.37;;;4.83;;
7493;SDS011;3788;49.902;8.590;2024-03-06T07:24:17;5.43;;;4.27;;
7493;SDS011;3788;49.902;8.590;2024-03-06T07:26:43;4.23;;;3.83;;
7493;SDS011;3788;49.902;8.590;2024-03-06T07:29:10;5.00;;;4.50;;
7493;SDS011;3788;49.902;8.590;2024-03-06T07:31:41;5.70;;;4.47;;
7493;SDS011;3788;49.902;8.590;2024-03-06T07:34:08;6.20;;;4.57;;
7493;SDS011;3788;49.902;8.590;2024-03-06T07:36:36;4.50;;;4.07;;
7493;SDS011;3788;49.902;8.590;2024-03-06T07:39:02;4.60;;;4.20;;
7493;SDS011;3788;49.902;8.590;2024-03-06T07:41:30;4.10;;;3.70;;
7493;SDS011;3788;49.902;8.590;2024-03-06T07:43:57;4.73;;;4.20;;
7493;SDS011;3788;49.902;8.590;2024-03-06T07:46:24;4.97;;;4.47;;
7493;SDS011;3788;49.902;8.590;2024-03-06T07:48:52;4.77;;;4.10;;
7493;SDS011;3788;49.902;8.590;2024-03-06T07:51:20;4.70;;;4.30;;
7493;SDS011;3788;49.902;8.590;2024-03-06T07:53:46;4.93;;;4.43;;
7493;SDS011;3788;49.902;8.590;2024-03-06T07:56:14;4.13;;;3.83;;
7493;SDS011;3788;49.902;8.590;2024-03-06T07:58:40;5.90;;;5.20;;
7493;SDS011;3788;49.902;8.590;2024-03-06T08:01:07;4.37;;;3.97;;
7493;SDS011;3788;49.902;8.590;2024-03-06T08:03:34;4.50;;;4.07;;
7493;SDS011;3788;49.902;8.590;2024-03-06T08:06:02;5.10;;;4.60;;
7493;SDS011;3788;49.902;8.590;2024-03-06T08:08:29;4.33;;;3.93;;
7493;SDS011;3788;49.902;8.590;2024-03-06T08:10:56;4.23;;;3.80;;
7493;SDS011;3788;49.902;8.590;2024-03-06T08:13:22;3.80;;;3.47;;
7493;SDS011;3788;49.902;8.590;2024-03-06T08:15:49;4.10;;;3.70;;
7493;SDS011;3788;49.902;8.590;2024-03-06T08:18:16;3.97;;;3.60;;
7493;SDS011;3788;49.902;8.590;2024-03-06T08:20:43;4.10;;;3.67;;
7493;SDS011;3788;49.902;8.590;2024-03-06T08:23:11;4.73;;;4.13;;
7493;SDS011;3788;49.902;8.590;2024-03-06T08:25:38;4.53;;;3.70;;
7493;SDS011;3788;49.902;8.590;2024-03-06T08:28:04;3.67;;;3.37;;
7493;SDS011;3788;49.902;8.590;2024-03-06T08:30:32;4.93;;;3.83;;
7493;SDS011;3788;49.902;8.590;2024-03-06T08:32:58;4.73;;;3.97;;
7493;SDS011;3788;49.902;8.590;2024-03-06T08:35:25;4.00;;;3.60;;
7493;SDS011;3788;49.902;8.590;2024-03-06T08:37:52;5.10;;;3.70;;
7493;SDS011;3788;49.902;8.590;2024-03-06T08:40:20;5.10;;;4.10;;
7493;SDS011;3788;49.902;8.590;2024-03-06T08:42:48;5.40;;;3.43;;
7493;SDS011;3788;49.902;8.590;2024-03-06T08:45:15;4.60;;;3.80;;
7493;SDS011;3788;49.902;8.590;2024-03-06T08:47:42;4.37;;;3.97;;
7493;SDS011;3788;49.902;8.590;2024-03-06T08:50:09;4.77;;;4.10;;
7493;SDS011;3788;49.902;8.590;2024-03-06T08:52:37;4.40;;;4.00;;
7493;SDS011;3788;49.902;8.590;2024-03-06T08:55:04;4.67;;;4.13;;
7493;SDS011;3788;49.902;8.590;2024-03-06T08:57:33;4.70;;;4.20;;
7493;SDS011;3788;49.902;8.590;2024-03-06T09:00:00;4.63;;;3.97;;
7493;SDS011;3788;49.902;8.590;2024-03-06T09:02:27;5.80;;;4.40;;
7493;SDS011;3788;49.902;8.590;2024-03-06T09:04:54;4.90;;;4.00;;
7493;SDS011;3788;49.902;8.590;2024-03-06T09:07:21;4.90;;;3.80;;
7493;SDS011;3788;49.902;8.590;2024-03-06T09:09:48;5.47;;;4.00;;
7493;SDS011;3788;49.902;8.590;2024-03-06T09:12:15;4.83;;;4.17;;
7493;SDS011;3788;49.902;8.590;2024-03-06T09:14:44;5.17;;;4.67;;
7493;SDS011;3788;49.902;8.590;2024-03-06T09:17:11;6.53;;;5.27;;
7493;SDS011;3788;49.902;8.590;2024-03-06T09:19:39;6.17;;;5.43;;
7493;SDS011;3788;49.902;8.590;2024-03-06T09:22:06;6.63;;;5.70;;
7493;SDS011;3788;49.902;8.590;2024-03-06T09:24:33;5.33;;;4.83;;
7493;SDS011;3788;49.902;8.590;2024-03-06T09:27:03;6.03;;;5.43;;
7493;SDS011;3788;49.902;8.590;2024-03-06T09:29:30;6.03;;;5.43;;
7493;SDS011;3788;49.902;8.590;2024-03-06T09:31:58;5.97;;;5.07;;
7493;SDS011;3788;49.902;8.590;2024-03-06T09:34:25;10.00;;;6.77;;
7493;SDS011;3788;49.902;8.590;2024-03-06T09:36:52;8.33;;;6.70;;
7493;SDS011;3788;49.902;8.590;2024-03-06T09:39:19;7.70;;;6.80;;
7493;SDS011;3788;49.902;8.590;2024-03-06T09:41:47;8.03;;;7.07;;
7493;SDS011;3788;49.902;8.590;2024-03-06T09:44:15;7.97;;;7.13;;
7493;SDS011;3788;49.902;8.590;2024-03-06T09:46:42;10.77;;;8.53;;
7493;SDS011;3788;49.902;8.590;2024-03-06T09:49:13;10.40;;;9.10;;
7493;SDS011;3788;49.902;8.590;2024-03-06T09:51:42;11.77;;;9.60;;
7493;SDS011;3788;49.902;8.590;2024-03-06T09:54:11;10.03;;;9.03;;
7493;SDS011;3788;49.902;8.590;2024-03-06T09:56:40;12.17;;;8.83;;
7493;SDS011;3788;49.902;8.590;2024-03-06T09:59:07;9.93;;;8.43;;
7493;SDS011;3788;49.902;8.590;2024-03-06T10:01:35;12.40;;;9.03;;
7493;SDS011;3788;49.902;8.590;2024-03-06T10:04:18;10.33;;;8.33;;
7493;SDS011;3788;49.902;8.590;2024-03-06T10:06:45;10.60;;;8.97;;
7493;SDS011;3788;49.902;8.590;2024-03-06T10:09:12;14.10;;;10.13;;
7493;SDS011;3788;49.902;8.590;2024-03-06T10:11:43;15.07;;;11.87;;
7493;SDS011;3788;49.902;8.590;2024-03-06T10:14:09;12.87;;;9.93;;
7493;SDS011;3788;49.902;8.590;2024-03-06T10:16:37;14.90;;;11.23;;
7493;SDS011;3788;49.902;8.590;2024-03-06T10:19:17;18.30;;;12.30;;
7493;SDS011;3788;49.902;8.590;2024-03-06T10:21:46;12.27;;;10.60;;
7493;SDS011;3788;49.902;8.590;2024-03-06T10:24:16;13.90;;;10.80;;
7493;SDS011;3788;49.902;8.590;2024-03-06T10:26:45;13.17;;;10.73;;
7493;SDS011;3788;49.902;8.590;2024-03-06T10:29:15;14.77;;;11.20;;
7493;SDS011;3788;49.902;8.590;2024-03-06T10:31:50;16.10;;;13.03;;
7493;SDS011;3788;49.902;8.590;2024-03-06T10:34:19;18.30;;;12.90;;
7493;SDS011;3788;49.902;8.590;2024-03-06T10:36:45;13.93;;;11.17;;
7493;SDS011;3788;49.902;8.590;2024-03-06T10:39:14;14.90;;;11.87;;
7493;SDS011;3788;49.902;8.590;2024-03-06T10:41:44;14.93;;;11.97;;
7493;SDS011;3788;49.902;8.590;2024-03-06T10:44:17;13.43;;;11.13;;
7493;SDS011;3788;49.902;8.590;2024-03-06T10:46:47;15.63;;;11.73;;
7493;SDS011;3788;49.902;8.590;2024-03-06T10:49:23;13.87;;;11.53;;
7493;SDS011;3788;49.902;8.590;2024-03-06T10:51:52;16.77;;;12.03;;
7493;SDS011;3788;49.902;8.590;2024-03-06T10:54:21;15.47;;;11.90;;
7493;SDS011;3788;49.902;8.590;2024-03-06T10:56:48;15.33;;;11.80;;
7493;SDS011;3788;49.902;8.590;2024-03-06T10:59:15;13.50;;;10.70;;
7493;SDS011;3788;49.902;8.590;2024-03-06T11:01:43;17.50;;;11.97;;
7493;SDS011;3788;49.902;8.590;2024-03-06T11:04:12;15.30;;;11.90;;
7493;SDS011;3788;49.902;8.590;2024-03-06T11:06:41;13.53;;;11.13;;
7493;SDS011;3788;49.902;8.590;2024-03-06T11:09:08;17.53;;;12.73;;
7493;SDS011;3788;49.902;8.590;2024-03-06T11:11:47;15.80;;;12.07;;
7493;SDS011;3788;49.902;8.590;2024-03-06T11:14:14;14.63;;;10.30;;
7493;SDS011;3788;49.902;8.590;2024-03-06T11:16:56;15.07;;;10.80;;
7493;SDS011;3788;49.902;8.590;2024-03-06T11:19:28;14.90;;;10.67;;
7493;SDS011;3788;49.902;8.590;2024-03-06T11:21:56;13.73;;;10.47;;
7493;SDS011;3788;49.902;8.590;2024-03-06T11:24:31;14.17;;;10.47;;
7493;SDS011;3788;49.902;8.590;2024-03-06T11:26:59;13.27;;;10.00;;
7493;SDS011;3788;49.902;8.590;2024-03-06T11:29:27;13.20;;;10.00;;
7493;SDS011;3788;49.902;8.590;2024-03-06T11:32:05;15.33;;;10.97;;
7493;SDS011;3788;49.902;8.590;2024-03-06T11:34:34;15.10;;;11.17;;
7493;SDS011;3788;49.902;8.590;2024-03-06T11:37:04;13.40;;;10.37;;
7493;SDS011;3788;49.902;8.590;2024-03-06T11:39:34;12.37;;;9.30;;
7493;SDS011;3788;49.902;8.590;2024-03-06T11:42:02;14.20;;;10.23;;
7493;SDS011;3788;49.902;8.590;2024-03-06T11:44:31;13.77;;;10.73;;
7493;SDS011;3788;49.902;8.590;2024-03-06T11:46:58;14.30;;;9.87;;
7493;SDS011;3788;49.902;8.590;2024-03-06T11:49:26;12.23;;;9.23;;
7493;SDS011;3788;49.902;8.590;2024-03-06T11:51:57;12.37;;;8.80;;
7493;SDS011;3788;49.902;8.590;2024-03-06T11:54:27;12.97;;;8.70;;
7493;SDS011;3788;49.902;8.590;2024-03-06T11:56:54;14.50;;;9.60;;
7493;SDS011;3788;49.902;8.590;2024-03-06T11:59:22;11.90;;;8.37;;
7493;SDS011;3788;49.902;8.590;2024-03-06T12:01:50;13.30;;;9.47;;
7493;SDS011;3788;49.902;8.590;2024-03-06T12:04:18;13.73;;;9.80;;
7493;SDS011;3788;49.902;8.590;2024-03-06T12:06:45;11.43;;;8.93;;
7493;SDS011;3788;49.902;8.590;2024-03-06T12:09:12;14.10;;;9.43;;
7493;SDS011;3788;49.902;8.590;2024-03-06T12:11:41;13.20;;;9.33;;
7493;SDS011;3788;49.902;8.590;2024-03-06T12:14:12;12.20;;;9.73;;
7493;SDS011;3788;49.902;8.590;2024-03-06T12:16:39;12.53;;;9.23;;
7493;SDS011;3788;49.902;8.590;2024-03-06T12:19:07;13.23;;;9.27;;
7493;SDS011;3788;49.902;8.590;2024-03-06T12:21:34;11.57;;;9.13;;
7493;SDS011;3788;49.902;8.590;2024-03-06T12:24:03;11.97;;;9.50;;
7493;SDS011;3788;49.902;8.590;2024-03-06T12:26:30;12.97;;;9.73;;
7493;SDS011;3788;49.902;8.590;2024-03-06T12:29:04;12.57;;;8.93;;
7493;SDS011;3788;49.902;8.590;2024-03-06T12:31:32;14.53;;;11.20;;
7493;SDS011;3788;49.902;8.590;2024-03-06T12:34:00;13.93;;;10.37;;
7493;SDS011;3788;49.902;8.590;2024-03-06T12:36:27;13.43;;;9.83;;
7493;SDS011;3788;49.902;8.590;2024-03-06T12:38:56;14.73;;;10.67;;
7493;SDS011;3788;49.902;8.590;2024-03-06T12:41:24;12.40;;;9.27;;
7493;SDS011;3788;49.902;8.590;2024-03-06T12:43:52;12.70;;;9.47;;
7493;SDS011;3788;49.902;8.590;2024-03-06T12:46:21;13.30;;;10.30;;
7493;SDS011;3788;49.902;8.590;2024-03-06T12:48:47;13.93;;;10.17;;
7493;SDS011;3788;49.902;8.590;2024-03-06T12:51:14;14.80;;;11.03;;
7493;SDS011;3788;49.902;8.590;2024-03-06T12:53:41;14.60;;;11.17;;
7493;SDS011;3788;49.902;8.590;2024-03-06T12:56:07;15.13;;;10.60;;
7493;SDS011;3788;49.902;8.590;2024-03-06T12:58:34;14.40;;;11.23;;
7493;SDS011;3788;49.902;8.590;2024-03-06T13:01:01;13.47;;;10.57;;
7493;SDS011;3788;49.902;8.590;2024-03-06T13:03:29;12.20;;;10.40;;
7493;SDS011;3788;49.902;8.590;2024-03-06T13:05:56;13.87;;;10.27;;
7493;SDS011;3788;49.902;8.590;2024-03-06T13:08:23;15.33;;;11.10;;
7493;SDS011;3788;49.902;8.590;2024-03-06T13:10:50;14.90;;;11.10;;
7493;SDS011;3788;49.902;8.590;2024-03-06T13:13:16;12.93;;;9.93;;
7493;SDS011;3788;49.902;8.590;2024-03-06T13:15:43;15.77;;;11.50;;
7493;SDS011;3788;49.902;8.590;2024-03-06T13:18:11;17.00;;;12.17;;
7493;SDS011;3788;49.902;8.590;2024-03-06T13:20:39;15.97;;;11.77;;
7493;SDS011;3788;49.902;8.590;2024-03-06T13:23:05;15.53;;;11.20;;
7493;SDS011;3788;49.902;8.590;2024-03-06T13:25:32;15.50;;;11.30;;
7493;SDS011;3788;49.902;8.590;2024-03-06T13:27:59;14.10;;;11.10;;
7493;SDS011;3788;49.902;8.590;2024-03-06T13:30:26;16.43;;;10.60;;
7493;SDS011;3788;49.902;8.590;2024-03-06T13:32:53;17.57;;;11.27;;
7493;SDS011;3788;49.902;8.590;2024-03-06T13:35:20;18.73;;;12.67;;
7493;SDS011;3788;49.902;8.590;2024-03-06T13:37:48;17.73;;;11.90;;
7493;SDS011;3788;49.902;8.590;2024-03-06T13:40:15;18.23;;;11.63;;
7493;SDS011;3788;49.902;8.590;2024-03-06T13:42:42;18.87;;;12.80;;
7493;SDS011;3788;49.902;8.590;2024-03-06T13:45:09;18.33;;;13.17;;
7493;SDS011;3788;49.902;8.590;2024-03-06T13:47:37;16.23;;;12.03;;
7493;SDS011;3788;49.902;8.590;2024-03-06T13:50:06;17.87;;;12.53;;
7493;SDS011;3788;49.902;8.590;2024-03-06T13:52:34;15.80;;;11.73;;
7493;SDS011;3788;49.902;8.590;2024-03-06T13:55:02;19.40;;;13.47;;
7493;SDS011;3788;49.902;8.590;2024-03-06T13:57:30;17.27;;;12.33;;
7493;SDS011;3788;49.902;8.590;2024-03-06T13:59:58;17.37;;;11.77;;
7493;SDS011;3788;49.902;8.590;2024-03-06T14:02:25;16.97;;;11.87;;
7493;SDS011;3788;49.902;8.590;2024-03-06T14:04:52;19.07;;;12.70;;
7493;SDS011;3788;49.902;8.590;2024-03-06T14:07:18;16.93;;;11.93;;
7493;SDS011;3788;49.902;8.590;2024-03-06T14:09:45;17.30;;;12.13;;
7493;SDS011;3788;49.902;8.590;2024-03-06T14:12:13;17.10;;;11.73;;
7493;SDS011;3788;49.902;8.590;2024-03-06T14:14:40;17.17;;;12.30;;
7493;SDS011;3788;49.902;8.590;2024-03-06T14:17:06;14.83;;;11.10;;
7493;SDS011;3788;49.902;8.590;2024-03-06T14:19:33;15.23;;;10.80;;
7493;SDS011;3788;49.902;8.590;2024-03-06T14:22:00;15.73;;;11.40;;
7493;SDS011;3788;49.902;8.590;2024-03-06T14:24:27;16.00;;;10.87;;
7493;SDS011;3788;49.902;8.590;2024-03-06T14:26:53;14.53;;;10.13;;
7493;SDS011;3788;49.902;8.590;2024-03-06T14:29:21;14.13;;;9.93;;
7493;SDS011;3788;49.902;8.590;2024-03-06T14:31:48;15.00;;;10.43;;
7493;SDS011;3788;49.902;8.590;2024-03-06T14:34:15;13.57;;;10.17;;
7493;SDS011;3788;49.902;8.590;2024-03-06T14:36:41;14.17;;;10.43;;
7493;SDS011;3788;49.902;8.590;2024-03-06T14:39:08;13.37;;;9.13;;
7493;SDS011;3788;49.902;8.590;2024-03-06T14:41:35;13.33;;;9.47;;
7493;SDS011;3788;49.902;8.590;2024-03-06T14:44:02;11.97;;;8.80;;
7493;SDS011;3788;49.902;8.590;2024-03-06T14:46:30;12.47;;;8.90;;
7493;SDS011;3788;49.902;8.590;2024-03-06T14:48:56;12.40;;;9.30;;
7493;SDS011;3788;49.902;8.590;2024-03-06T14:51:23;13.77;;;10.10;;
7493;SDS011;3788;49.902;8.590;2024-03-06T14:53:50;16.13;;;11.53;;
7493;SDS011;3788;49.902;8.590;2024-03-06T14:56:17;12.87;;;9.57;;
7493;SDS011;3788;49.902;8.590;2024-03-06T14:58:45;14.03;;;10.07;;
7493;SDS011;3788;49.902;8.590;2024-03-06T15:01:12;12.97;;;9.47;;
7493;SDS011;3788;49.902;8.590;2024-03-06T15:03:40;12.37;;;8.80;;
7493;SDS011;3788;49.902;8.590;2024-03-06T15:06:07;12.20;;;8.87;;
7493;SDS011;3788;49.902;8.590;2024-03-06T15:08:34;13.83;;;9.60;;